Time;durP1;ratioP1;P1;durP2;ratioP2;P2;SDS_P1;SDS_P2;PMS_P1;PMS_P2;Temp;Humidity;BMP_temperature;BMP_pressure;BME280_temperature;BME280_humidity;BME280_pressure;Samples;Min_cycle;Max_cycle;Signal;HPM_P1;HPM_P2
2022/04/01 00:01:19;;;;;;;11.10;10.80;;;5.50;99.90;;;;;;5140221;27;20279;-81
2022/04/01 00:03:47;;;;;;;10.80;10.50;;;5.50;99.90;;;;;;5139727;27;20323;-81
2022/04/01 00:06:14;;;;;;;10.80;10.50;;;5.40;99.90;;;;;;5154860;27;20223;-82
2022/04/01 00:08:42;;;;;;;11.13;10.83;;;5.40;99.90;;;;;;5160060;27;20216;-83
2022/04/01 00:11:10;;;;;;;11.13;10.83;;;5.40;99.90;;;;;;5159908;27;20249;-82
2022/04/01 00:13:37;;;;;;;11.20;10.90;;;5.50;99.90;;;;;;5159776;27;20220;-81
2022/04/01 00:16:07;;;;;;;10.83;10.53;;;5.60;99.90;;;;;;5154052;27;20247;-81
2022/04/01 00:18:34;;;;;;;11.27;10.97;;;5.60;99.90;;;;;;5145701;27;20224;-81
2022/04/01 00:21:02;;;;;;;10.80;10.50;;;5.60;99.90;;;;;;5141918;27;20232;-81
2022/04/01 00:23:29;;;;;;;10.90;10.60;;;5.50;99.90;;;;;;5141061;27;20274;-81
2022/04/01 00:25:57;;;;;;;11.20;10.90;;;5.40;99.90;;;;;;5140036;27;20288;-81
2022/04/01 00:28:25;;;;;;;11.40;11.00;;;5.30;99.90;;;;;;5139910;27;20262;-81
2022/04/01 00:30:54;;;;;;;11.00;10.70;;;5.30;99.90;;;;;;5140237;27;20254;-81
2022/04/01 00:33:24;;;;;;;11.20;10.90;;;5.30;99.90;;;;;;5140427;27;20231;-81
2022/04/01 00:35:51;;;;;;;11.20;10.90;;;5.20;99.90;;;;;;5139243;27;20262;-81
2022/04/01 00:38:19;;;;;;;11.20;10.90;;;5.20;99.90;;;;;;5139410;27;20255;-81
2022/04/01 00:40:48;;;;;;;11.10;10.80;;;5.10;99.90;;;;;;5139237;27;20220;-81
2022/04/01 00:43:15;;;;;;;11.07;10.77;;;5.10;99.90;;;;;;5139218;27;20310;-81
2022/04/01 00:45:43;;;;;;;11.57;11.17;;;5.00;99.90;;;;;;5158202;22;20310;-83
2022/04/01 00:48:11;;;;;;;11.30;11.00;;;5.00;99.90;;;;;;5139336;27;20253;-83
2022/04/01 00:50:40;;;;;;;11.17;10.87;;;5.00;99.90;;;;;;5148994;27;20264;-82
2022/04/01 00:53:10;;;;;;;10.93;10.63;;;5.00;99.90;;;;;;5159627;27;20315;-83
2022/04/01 00:55:41;;;;;;;11.13;10.83;;;5.00;99.90;;;;;;5146449;27;20288;-84
2022/04/01 00:58:11;;;;;;;11.27;10.90;;;5.00;99.90;;;;;;5164214;27;20238;-82
2022/04/01 01:00:42;;;;;;;11.27;10.90;;;5.00;99.90;;;;;;5164212;27;20272;-82
2022/04/01 01:03:13;;;;;;;11.10;10.80;;;5.00;99.90;;;;;;5164873;27;20223;-84
2022/04/01 01:05:46;;;;;;;11.40;11.00;;;5.00;99.90;;;;;;5164229;27;20240;-83
2022/04/01 01:08:14;;;;;;;11.33;10.93;;;5.00;99.90;;;;;;5164220;27;20231;-84
2022/04/01 01:10:42;;;;;;;11.00;10.70;;;5.00;99.90;;;;;;5164048;27;20291;-83
2022/04/01 01:13:13;;;;;;;11.43;11.03;;;4.90;99.90;;;;;;5163768;27;20318;-83
2022/04/01 01:15:41;;;;;;;11.50;11.10;;;4.90;99.90;;;;;;5163905;27;20238;-84
2022/04/01 01:18:09;;;;;;;11.03;10.73;;;5.00;99.90;;;;;;5164400;27;20243;-83
2022/04/01 01:20:42;;;;;;;11.20;10.90;;;5.00;99.90;;;;;;5163839;27;20269;-83
2022/04/01 01:23:14;;;;;;;11.03;10.73;;;4.90;99.90;;;;;;5163896;27;20228;-83
2022/04/01 01:25:45;;;;;;;11.00;10.70;;;4.90;99.90;;;;;;5163384;27;20231;-83
2022/04/01 01:28:19;;;;;;;10.90;10.60;;;4.90;99.90;;;;;;5163717;27;20238;-82
2022/04/01 01:30:47;;;;;;;10.57;10.27;;;4.90;99.90;;;;;;5164578;27;20218;-83
2022/04/01 01:33:15;;;;;;;11.07;10.77;;;4.80;99.90;;;;;;5164305;27;20367;-83
2022/04/01 01:35:43;;;;;;;11.00;10.70;;;4.80;99.90;;;;;;5164320;27;20243;-83
2022/04/01 01:38:11;;;;;;;11.40;11.00;;;4.80;99.90;;;;;;5163942;27;20289;-83
2022/04/01 01:40:43;;;;;;;11.17;10.87;;;4.70;99.90;;;;;;5163866;27;20240;-83
2022/04/01 01:43:17;;;;;;;11.77;11.37;;;4.80;99.90;;;;;;5163668;27;20336;-83
2022/04/01 01:45:45;;;;;;;11.53;11.13;;;4.80;99.90;;;;;;5163272;27;20243;-83
2022/04/01 01:48:13;;;;;;;11.40;11.00;;;4.80;99.90;;;;;;5163905;27;20227;-84
2022/04/01 01:56:12;;;;;;;11.47;11.07;;;4.60;99.90;;;;;;5165401;27;20223;-83
2022/04/01 01:58:40;;;;;;;11.70;11.30;;;4.70;99.90;;;;;;5178743;27;20220;-83
2022/04/01 02:01:10;;;;;;;11.67;11.27;;;4.60;99.90;;;;;;5182731;27;20238;-83
2022/04/01 02:03:37;;;;;;;11.33;10.93;;;4.60;99.90;;;;;;5167664;27;20248;-84
2022/04/01 02:06:05;;;;;;;11.10;10.80;;;4.60;99.90;;;;;;5165998;27;20250;-84
2022/04/01 02:08:33;;;;;;;11.47;11.07;;;4.60;99.90;;;;;;5165538;27;20341;-84
2022/04/01 02:11:04;;;;;;;11.20;10.80;;;4.60;99.90;;;;;;5165154;27;20219;-84
2022/04/01 02:13:33;;;;;;;11.30;10.90;;;4.50;99.90;;;;;;5165639;27;20223;-83
2022/04/01 02:16:01;;;;;;;11.30;10.90;;;4.40;99.90;;;;;;5172904;27;20232;-83
2022/04/01 02:18:29;;;;;;;11.50;11.10;;;4.40;99.90;;;;;;5175467;27;20240;-83
2022/04/01 02:20:57;;;;;;;11.20;10.80;;;4.40;99.90;;;;;;5166992;27;20216;-84
2022/04/01 02:23:26;;;;;;;11.40;11.00;;;4.30;99.90;;;;;;5166111;27;20223;-84
2022/04/01 02:25:53;;;;;;;11.17;10.77;;;4.30;99.90;;;;;;5166014;27;20235;-83
2022/04/01 02:28:22;;;;;;;11.40;11.00;;;4.30;99.90;;;;;;5166193;27;20227;-83
2022/04/01 02:30:51;;;;;;;11.20;10.80;;;4.30;99.90;;;;;;5164317;27;20234;-83
2022/04/01 02:33:19;;;;;;;11.20;10.80;;;4.20;99.90;;;;;;5164935;27;20253;-82
2022/04/01 02:35:47;;;;;;;10.93;10.63;;;4.20;99.90;;;;;;5164573;27;20234;-83
2022/04/01 02:38:15;;;;;;;11.30;10.90;;;4.20;99.90;;;;;;5165931;27;20238;-83
2022/04/01 02:40:42;;;;;;;11.23;10.83;;;4.20;99.90;;;;;;5165688;27;20265;-82
2022/04/01 02:43:10;;;;;;;11.20;10.80;;;4.20;99.90;;;;;;5164690;27;20220;-83
2022/04/01 02:45:38;;;;;;;11.27;10.87;;;4.20;99.90;;;;;;5164980;27;20292;-84
2022/04/01 02:48:08;;;;;;;11.13;10.73;;;4.20;99.90;;;;;;5165390;27;20230;-83
2022/04/01 02:50:35;;;;;;;11.40;11.00;;;4.20;99.90;;;;;;5164369;27;20228;-84
2022/04/01 02:53:05;;;;;;;11.20;10.80;;;4.10;99.90;;;;;;5163419;27;20261;-84
2022/04/01 02:55:35;;;;;;;11.40;11.00;;;4.10;99.90;;;;;;5163188;27;20231;-83
2022/04/01 02:58:05;;;;;;;11.13;10.73;;;4.10;99.90;;;;;;5162860;27;20251;-83
2022/04/01 03:00:35;;;;;;;11.10;10.70;;;4.10;99.90;;;;;;5163609;27;20230;-83
2022/04/01 03:03:06;;;;;;;11.20;10.80;;;4.20;99.90;;;;;;5163297;27;20227;-83
2022/04/01 03:05:36;;;;;;;10.80;10.50;;;4.10;99.90;;;;;;5163864;27;20219;-83
2022/04/01 03:08:06;;;;;;;11.00;10.63;;;4.10;99.90;;;;;;5180707;27;20231;-82
2022/04/01 03:10:37;;;;;;;10.83;10.53;;;4.10;99.90;;;;;;5169686;27;20259;-83
2022/04/01 03:13:07;;;;;;;11.23;10.83;;;4.00;99.90;;;;;;5161232;27;20253;-83
2022/04/01 03:15:38;;;;;;;11.00;10.70;;;4.00;99.90;;;;;;5161377;27;20223;-83
2022/04/01 03:18:09;;;;;;;10.80;10.50;;;4.00;99.90;;;;;;5162694;27;20264;-83
2022/04/01 03:20:39;;;;;;;11.23;10.83;;;4.10;99.90;;;;;;5163061;27;20288;-83
2022/04/01 03:23:10;;;;;;;11.30;10.90;;;4.00;99.90;;;;;;5163199;27;20744;-83
2022/04/01 03:25:39;;;;;;;10.90;10.60;;;4.00;99.90;;;;;;5163347;27;20321;-83
2022/04/01 03:28:10;;;;;;;10.83;10.53;;;4.00;99.90;;;;;;5163360;27;20242;-83
2022/04/01 03:30:38;;;;;;;10.80;10.50;;;4.00;99.90;;;;;;5164048;27;20241;-83
2022/04/01 03:33:11;;;;;;;10.90;10.60;;;4.00;99.90;;;;;;5164011;27;20235;-83
2022/04/01 03:35:43;;;;;;;10.60;10.30;;;4.00;99.90;;;;;;5164342;27;20236;-83
2022/04/01 03:38:13;;;;;;;10.87;10.57;;;3.90;99.90;;;;;;5164771;27;20229;-83
2022/04/01 03:40:43;;;;;;;10.80;10.50;;;3.90;99.90;;;;;;5163803;27;20296;-83
2022/04/01 03:43:12;;;;;;;11.20;10.80;;;3.90;99.90;;;;;;5164049;27;20257;-84
2022/04/01 03:45:46;;;;;;;11.10;10.73;;;3.90;99.90;;;;;;5164291;27;20243;-83
2022/04/01 03:48:26;;;;;;;11.03;10.70;;;3.90;99.90;;;;;;5162753;27;20289;-83
2022/04/01 03:51:00;;;;;;;10.97;10.67;;;3.80;99.90;;;;;;5163486;27;20277;-83
2022/04/01 03:53:29;;;;;;;10.97;10.67;;;3.80;99.90;;;;;;5164672;27;20230;-83
2022/04/01 03:56:00;;;;;;;10.77;10.47;;;3.80;99.90;;;;;;5162956;27;20235;-83
2022/04/01 03:58:36;;;;;;;10.90;10.60;;;3.90;99.90;;;;;;5163085;27;20227;-83
2022/04/01 04:01:05;;;;;;;11.50;11.10;;;3.80;99.90;;;;;;5162696;27;20227;-83
2022/04/01 04:03:33;;;;;;;11.33;10.93;;;3.80;99.90;;;;;;5162554;27;20357;-83
2022/04/01 04:06:09;;;;;;;11.20;10.80;;;3.80;99.90;;;;;;5162373;27;20278;-84
2022/04/01 04:08:39;;;;;;;11.37;10.97;;;3.80;99.90;;;;;;5163193;27;20223;-83
2022/04/01 04:11:09;;;;;;;11.23;10.83;;;3.80;99.90;;;;;;5163366;27;20223;-84
2022/04/01 04:13:41;;;;;;;11.60;11.20;;;3.80;99.90;;;;;;5162057;27;20241;-84
2022/04/01 04:16:19;;;;;;;11.50;11.10;;;3.80;99.90;;;;;;5163308;27;20235;-84
2022/04/01 04:18:55;;;;;;;11.50;11.10;;;3.80;99.90;;;;;;5162833;27;20231;-83
2022/04/01 04:21:29;;;;;;;11.53;11.13;;;3.80;99.90;;;;;;5163240;27;20231;-84
2022/04/01 04:23:59;;;;;;;11.60;11.20;;;3.80;99.90;;;;;;5162260;27;20279;-84
2022/04/01 04:26:35;;;;;;;11.20;10.80;;;3.80;99.90;;;;;;5161931;27;20237;-84
2022/04/01 04:29:10;;;;;;;11.57;11.17;;;3.80;99.90;;;;;;5162236;27;20306;-84
2022/04/01 04:31:39;;;;;;;11.57;11.17;;;3.80;99.90;;;;;;5161947;27;20223;-83
2022/04/01 04:34:12;;;;;;;11.53;11.13;;;3.80;99.90;;;;;;5162042;27;20246;-83
2022/04/01 04:36:52;;;;;;;11.43;11.03;;;3.80;99.90;;;;;;5161576;27;20239;-84
2022/04/01 04:39:32;;;;;;;11.47;11.07;;;3.70;99.90;;;;;;5162255;27;20291;-83
2022/04/01 04:42:01;;;;;;;11.20;10.80;;;3.80;99.90;;;;;;5161747;27;20227;-83
2022/04/01 04:44:30;;;;;;;11.23;10.83;;;3.80;99.90;;;;;;5161644;27;20258;-84
2022/04/01 04:46:59;;;;;;;11.20;10.80;;;3.70;99.90;;;;;;5160838;27;20241;-83
2022/04/01 04:49:28;;;;;;;11.13;10.77;;;3.80;99.90;;;;;;5162182;27;20714;-83
2022/04/01 04:52:01;;;;;;;11.03;10.73;;;3.70;99.90;;;;;;5162196;27;20227;-83
2022/04/01 04:54:29;;;;;;;12.00;11.60;;;3.70;99.90;;;;;;5162634;27;20228;-83
2022/04/01 04:56:59;;;;;;;12.00;11.60;;;3.70;99.90;;;;;;5161085;27;20695;-83
2022/04/01 04:59:31;;;;;;;12.00;11.60;;;3.70;99.90;;;;;;5162964;27;20641;-83
2022/04/01 05:02:04;;;;;;;12.20;11.80;;;3.70;99.90;;;;;;5162215;27;20208;-84
2022/04/01 05:05:02;;;;;;;12.00;11.60;;;3.60;99.90;;;;;;5162433;27;20235;-83
2022/04/01 05:07:48;;;;;;;11.90;11.50;;;3.60;99.90;;;;;;5162972;27;20262;-84
2022/04/01 05:10:18;;;;;;;11.83;11.43;;;3.60;99.90;;;;;;5162190;27;20243;-83
2022/04/01 05:12:59;;;;;;;12.30;11.90;;;3.60;99.90;;;;;;5162134;27;20714;-83
2022/04/01 05:15:31;;;;;;;12.10;11.70;;;3.60;99.90;;;;;;5162388;27;20227;-83
2022/04/01 05:18:12;;;;;;;12.27;11.87;;;3.60;99.90;;;;;;5163574;27;20282;-83
2022/04/01 05:20:48;;;;;;;12.00;11.60;;;3.60;99.90;;;;;;5163010;27;20287;-84
2022/04/01 05:23:27;;;;;;;11.80;11.40;;;3.60;99.90;;;;;;5173616;27;20235;-83
2022/04/01 05:25:59;;;;;;;11.83;11.43;;;3.50;99.90;;;;;;5180327;27;20223;-84
2022/04/01 05:28:35;;;;;;;11.90;11.50;;;3.50;99.90;;;;;;5180934;27;20231;-83
2022/04/01 05:31:18;;;;;;;11.73;11.33;;;3.50;99.90;;;;;;5181181;27;20320;-82
2022/04/01 05:34:01;;;;;;;11.93;11.53;;;3.50;99.90;;;;;;5171780;27;20216;-83
2022/04/01 05:36:53;;;;;;;12.00;11.60;;;3.40;99.90;;;;;;5169915;27;20256;-83
2022/04/01 05:39:24;;;;;;;12.00;11.60;;;3.40;99.90;;;;;;5163903;27;20318;-84
2022/04/01 05:41:52;;;;;;;11.57;11.17;;;3.30;99.90;;;;;;5165424;27;20236;-83
2022/04/01 05:44:22;;;;;;;11.63;11.23;;;3.20;99.90;;;;;;5167778;27;20207;-83
2022/04/01 05:46:51;;;;;;;11.47;11.07;;;3.20;99.90;;;;;;5183240;27;20219;-82
2022/04/01 05:49:22;;;;;;;11.63;11.23;;;3.20;99.90;;;;;;5168457;27;20232;-84
2022/04/01 05:51:54;;;;;;;11.67;11.27;;;3.30;99.90;;;;;;5165934;27;20220;-83
2022/04/01 05:54:26;;;;;;;11.60;11.20;;;3.30;99.90;;;;;;5166883;27;20234;-84
2022/04/01 05:56:54;;;;;;;11.63;11.23;;;3.30;99.90;;;;;;5166620;27;20235;-83
2022/04/01 05:59:25;;;;;;;11.63;11.23;;;3.30;99.90;;;;;;5171759;27;20234;-82
2022/04/01 06:02:12;;;;;;;11.80;11.40;;;3.30;99.90;;;;;;5183758;27;20223;-82
2022/04/01 06:05:18;;;;;;;12.00;11.60;;;3.40;99.90;;;;;;5164768;27;20227;-83
2022/04/01 06:08:03;;;;;;;11.80;11.40;;;3.40;99.90;;;;;;5162005;27;20276;-83
2022/04/01 06:10:45;;;;;;;11.77;11.37;;;3.40;99.90;;;;;;5165434;27;20227;-84
2022/04/01 06:13:26;;;;;;;11.97;11.57;;;3.40;99.90;;;;;;5166042;27;20235;-83
2022/04/01 06:16:11;;;;;;;12.03;11.63;;;3.40;99.90;;;;;;5165458;27;20274;-83
2022/04/01 06:18:52;;;;;;;12.10;11.70;;;3.30;99.90;;;;;;5165764;27;20257;-83
2022/04/01 06:21:28;;;;;;;12.13;11.73;;;3.30;99.90;;;;;;5165327;27;20301;-83
2022/04/01 06:24:12;;;;;;;12.33;11.93;;;3.30;99.90;;;;;;5163445;27;20264;-83
2022/04/01 06:26:54;;;;;;;12.00;11.60;;;3.30;99.90;;;;;;5162496;27;20266;-83
2022/04/01 06:29:38;;;;;;;12.03;11.63;;;3.40;99.90;;;;;;5162652;27;20227;-84
2022/04/01 06:32:10;;;;;;;12.10;11.70;;;3.50;99.90;;;;;;5165243;27;20223;-83
2022/04/01 06:35:04;;;;;;;11.60;11.20;;;3.40;99.90;;;;;;5165223;27;20232;-83
2022/04/01 06:37:37;;;;;;;11.80;11.40;;;3.30;99.90;;;;;;5165779;27;20227;-83
2022/04/01 06:40:14;;;;;;;11.80;11.40;;;3.30;99.90;;;;;;5165281;27;20228;-83
2022/04/01 06:42:46;;;;;;;11.90;11.50;;;3.30;99.90;;;;;;5165038;27;20322;-83
2022/04/01 06:45:15;;;;;;;11.77;11.37;;;3.40;99.90;;;;;;5164746;27;20235;-83
2022/04/01 06:47:45;;;;;;;11.80;11.40;;;3.40;99.90;;;;;;5148366;22;20328;-78
2022/04/01 06:50:16;;;;;;;11.67;11.27;;;3.40;99.90;;;;;;5121000;27;20229;-79
2022/04/01 06:52:45;;;;;;;11.57;11.17;;;3.40;99.90;;;;;;5118752;28;20229;-77
2022/04/01 06:55:13;;;;;;;11.90;11.50;;;3.40;99.90;;;;;;5117730;28;20777;-77
2022/04/01 06:57:43;;;;;;;11.77;11.37;;;3.40;99.90;;;;;;5134470;27;20319;-77
2022/04/01 07:00:13;;;;;;;11.77;11.37;;;3.50;99.90;;;;;;5140170;27;20232;-78
2022/04/01 07:02:42;;;;;;;11.43;11.03;;;3.40;99.90;;;;;;5141119;27;20296;-77
2022/04/01 07:05:10;;;;;;;11.40;11.00;;;3.40;99.90;;;;;;5140866;27;20224;-78
2022/04/01 07:07:41;;;;;;;11.60;11.20;;;3.40;99.90;;;;;;5140864;27;20246;-78
2022/04/01 07:10:11;;;;;;;11.57;11.17;;;3.50;99.90;;;;;;5146884;27;20227;-77
2022/04/01 07:12:39;;;;;;;11.67;11.27;;;3.40;99.90;;;;;;5142946;27;20254;-77
2022/04/01 07:15:10;;;;;;;11.53;11.13;;;3.40;99.90;;;;;;5142381;27;20255;-78
2022/04/01 07:17:38;;;;;;;11.80;11.40;;;3.30;99.90;;;;;;5141764;27;20321;-78
2022/04/01 07:20:07;;;;;;;11.70;11.30;;;3.40;99.90;;;;;;5141742;27;20228;-78
2022/04/01 07:22:36;;;;;;;11.80;11.40;;;3.30;99.90;;;;;;5141138;27;20255;-78
2022/04/01 07:25:04;;;;;;;11.83;11.43;;;3.30;99.90;;;;;;5140990;27;20236;-78
2022/04/01 07:27:33;;;;;;;11.40;11.00;;;3.20;99.90;;;;;;5139923;27;20320;-78
2022/04/01 07:30:00;;;;;;;10.87;10.57;;;3.20;99.90;;;;;;5140318;27;20232;-77
2022/04/01 07:32:33;;;;;;;10.83;10.53;;;3.20;99.90;;;;;;5140879;27;20281;-78
2022/04/01 07:35:02;;;;;;;11.20;10.80;;;3.20;99.90;;;;;;5140167;27;20236;-78
2022/04/01 07:37:31;;;;;;;10.83;10.53;;;3.20;99.90;;;;;;5139006;27;20285;-77
2022/04/01 07:39:59;;;;;;;10.90;10.60;;;3.20;99.90;;;;;;5140372;27;20281;-78
2022/04/01 07:42:27;;;;;;;10.93;10.63;;;3.30;99.90;;;;;;5139850;27;20323;-78
2022/04/01 07:44:55;;;;;;;11.33;10.93;;;3.20;99.90;;;;;;5142017;27;20246;-77
2022/04/01 07:47:23;;;;;;;11.17;10.77;;;3.20;99.90;;;;;;5150948;27;20224;-77
2022/04/01 07:49:53;;;;;;;11.20;10.80;;;3.30;99.90;;;;;;5152149;27;20236;-77
2022/04/01 07:52:23;;;;;;;11.67;11.27;;;3.30;99.90;;;;;;5152377;27;20232;-77
2022/04/01 07:54:52;;;;;;;11.30;10.90;;;3.40;99.90;;;;;;5147139;27;20224;-78
2022/04/01 07:57:20;;;;;;;11.50;11.10;;;3.40;99.90;;;;;;5140507;27;20271;-78
2022/04/01 07:59:48;;;;;;;11.90;11.50;;;3.30;99.90;;;;;;5139985;27;20224;-77
2022/04/01 08:02:16;;;;;;;11.80;11.40;;;3.30;99.90;;;;;;5138828;27;20297;-77
2022/04/01 08:04:44;;;;;;;12.00;11.60;;;3.30;99.90;;;;;;5139778;27;20261;-78
2022/04/01 08:07:13;;;;;;;11.40;11.00;;;3.30;99.90;;;;;;5139154;27;20259;-77
2022/04/01 08:09:41;;;;;;;11.67;11.27;;;3.30;99.90;;;;;;5139032;27;20282;-77
2022/04/01 08:12:09;;;;;;;12.00;11.60;;;3.40;99.90;;;;;;5139167;27;20288;-77
2022/04/01 08:14:37;;;;;;;11.57;11.17;;;3.40;99.90;;;;;;5138701;27;20224;-78
2022/04/01 08:17:06;;;;;;;11.73;11.33;;;3.30;99.90;;;;;;5138119;27;20232;-77
2022/04/01 08:19:34;;;;;;;11.60;11.20;;;3.30;99.90;;;;;;5138107;27;20228;-79
2022/04/01 08:22:01;;;;;;;11.53;11.13;;;3.30;99.90;;;;;;5138242;27;20258;-77
2022/04/01 08:24:31;;;;;;;11.30;10.90;;;3.20;99.90;;;;;;5139126;27;20290;-77
2022/04/01 08:27:00;;;;;;;11.60;11.20;;;3.20;99.90;;;;;;5138515;27;20278;-77
2022/04/01 08:29:27;;;;;;;10.93;10.63;;;3.20;99.90;;;;;;5138596;27;20254;-78
2022/04/01 08:31:55;;;;;;;11.30;10.90;;;3.20;99.90;;;;;;5138618;27;20251;-78
2022/04/01 08:34:23;;;;;;;11.33;10.93;;;3.20;99.90;;;;;;5137579;27;20228;-77
2022/04/01 08:36:52;;;;;;;11.27;10.87;;;3.20;99.90;;;;;;5138388;27;20235;-78
2022/04/01 08:39:21;;;;;;;11.00;10.70;;;3.30;99.90;;;;;;5138581;27;20343;-78
2022/04/01 08:41:50;;;;;;;11.50;11.10;;;3.30;99.90;;;;;;5137322;27;20242;-77
2022/04/01 08:44:17;;;;;;;11.37;10.97;;;3.40;99.90;;;;;;5138409;27;20280;-77
2022/04/01 08:46:46;;;;;;;11.20;10.80;;;3.40;99.90;;;;;;5137655;27;20244;-77
2022/04/01 08:49:13;;;;;;;10.87;10.57;;;3.40;99.90;;;;;;5138370;27;20259;-77
2022/04/01 08:51:41;;;;;;;11.07;10.73;;;3.30;99.90;;;;;;5138598;27;20220;-77
2022/04/01 08:54:09;;;;;;;11.20;10.80;;;3.30;99.90;;;;;;5138396;27;20384;-77
2022/04/01 08:56:36;;;;;;;10.90;10.60;;;3.10;99.90;;;;;;5138051;27;20248;-77
2022/04/01 08:59:05;;;;;;;11.20;10.80;;;3.20;99.90;;;;;;5137583;27;20813;-78
2022/04/01 09:01:42;;;;;;;11.37;10.97;;;3.30;99.90;;;;;;5137606;27;20274;-77
2022/04/01 09:04:22;;;;;;;11.40;11.00;;;3.40;99.90;;;;;;5137370;27;20315;-78
2022/04/01 09:06:50;;;;;;;11.50;11.10;;;3.40;99.90;;;;;;5136909;27;20231;-80
2022/04/01 09:09:25;;;;;;;11.43;11.03;;;3.30;99.90;;;;;;5136961;27;20766;-80
2022/04/01 09:12:08;;;;;;;11.30;10.90;;;3.20;99.90;;;;;;5138941;27;21122;-80
2022/04/01 09:14:38;;;;;;;11.50;11.10;;;3.30;99.90;;;;;;5142333;27;20239;-79
2022/04/01 09:17:06;;;;;;;11.27;10.87;;;3.30;99.90;;;;;;5141919;27;20327;-80
2022/04/01 09:19:36;;;;;;;11.20;10.80;;;3.30;99.90;;;;;;5142092;27;20285;-79
2022/04/01 09:22:25;;;;;;;11.10;10.70;;;3.20;99.90;;;;;;5141644;27;20271;-80
2022/04/01 09:24:58;;;;;;;11.17;10.77;;;3.20;99.90;;;;;;5141866;27;20256;-80
2022/04/01 09:27:44;;;;;;;10.90;10.60;;;3.20;99.90;;;;;;5141869;27;20319;-80
2022/04/01 09:30:17;;;;;;;11.17;10.77;;;3.20;99.90;;;;;;5141348;27;20794;-80
2022/04/01 09:32:47;;;;;;;11.37;10.97;;;3.20;99.90;;;;;;5140174;27;20232;-79
2022/04/01 09:35:15;;;;;;;11.60;11.20;;;3.20;99.90;;;;;;5140477;27;20317;-80
2022/04/01 09:37:46;;;;;;;11.57;11.17;;;3.20;99.90;;;;;;5140481;27;20285;-80
2022/04/01 09:40:17;;;;;;;11.27;10.87;;;3.20;99.90;;;;;;5140221;27;20291;-80
2022/04/01 09:42:48;;;;;;;11.00;10.70;;;3.20;99.90;;;;;;5141169;27;20236;-80
2022/04/01 09:45:23;;;;;;;11.10;10.80;;;3.20;99.90;;;;;;5141058;27;20243;-80
2022/04/01 09:48:00;;;;;;;10.87;10.57;;;3.20;99.90;;;;;;5139536;27;20327;-79
2022/04/01 09:50:30;;;;;;;11.43;11.03;;;3.20;99.90;;;;;;5140403;27;20622;-80
2022/04/01 09:53:08;;;;;;;11.50;11.10;;;3.20;99.90;;;;;;5140436;27;20255;-80
2022/04/01 09:55:37;;;;;;;11.60;11.20;;;3.10;99.90;;;;;;5140292;27;20236;-80
2022/04/01 09:58:06;;;;;;;11.33;10.93;;;3.20;99.90;;;;;;5141570;27;20224;-80
2022/04/01 10:00:36;;;;;;;11.43;11.03;;;3.30;99.90;;;;;;5157836;27;20208;-82
2022/04/01 10:03:05;;;;;;;11.60;11.20;;;3.30;99.90;;;;;;5162167;27;20251;-80
2022/04/01 10:05:33;;;;;;;11.60;11.20;;;3.30;99.90;;;;;;5159582;27;21147;-81
2022/04/01 10:08:05;;;;;;;11.33;10.93;;;3.20;99.90;;;;;;5157804;27;20228;-80
2022/04/01 10:10:33;;;;;;;11.10;10.70;;;3.30;99.90;;;;;;5142629;27;20239;-80
2022/04/01 10:13:06;;;;;;;11.33;10.93;;;3.30;99.90;;;;;;5150738;27;20232;-81
2022/04/01 10:15:36;;;;;;;11.30;10.90;;;3.40;99.90;;;;;;5157856;27;20267;-81
2022/04/01 10:18:04;;;;;;;11.33;10.93;;;3.40;99.90;;;;;;5159275;27;20254;-81
2022/04/01 10:20:34;;;;;;;11.40;11.00;;;3.40;99.90;;;;;;5158848;27;20231;-80
2022/04/01 10:23:04;;;;;;;11.17;10.77;;;3.30;99.90;;;;;;5155245;27;20278;-81
2022/04/01 10:25:38;;;;;;;11.60;11.20;;;3.30;99.90;;;;;;5144605;27;20259;-81
2022/04/01 10:28:10;;;;;;;10.93;10.63;;;3.30;99.90;;;;;;5143642;27;20232;-80
2022/04/01 10:30:40;;;;;;;11.43;11.03;;;3.30;99.90;;;;;;5143481;27;20231;-81
2022/04/01 10:33:09;;;;;;;11.43;11.03;;;3.30;99.90;;;;;;5142432;27;20227;-80
2022/04/01 10:35:38;;;;;;;11.40;11.00;;;3.30;99.90;;;;;;5146505;27;20332;-80
2022/04/01 10:38:19;;;;;;;11.20;10.80;;;3.30;99.90;;;;;;5150175;27;20216;-81
2022/04/01 10:40:50;;;;;;;11.40;11.00;;;3.20;99.90;;;;;;5147419;27;20261;-81
2022/04/01 10:43:20;;;;;;;11.47;11.07;;;3.10;99.90;;;;;;5142852;27;20250;-80
2022/04/01 10:46:07;;;;;;;11.50;11.10;;;3.20;99.90;;;;;;5143199;27;20258;-81
2022/04/01 10:51:37;;;;;;;11.43;11.03;;;3.40;99.90;;;;;;5143117;27;20224;-81
2022/04/01 10:54:43;;;;;;;11.90;11.50;;;3.30;99.90;;;;;;5142482;27;20260;-81
2022/04/01 10:57:14;;;;;;;11.70;11.30;;;3.30;99.90;;;;;;5143010;27;20306;-80
2022/04/01 10:59:43;;;;;;;11.80;11.40;;;3.30;99.90;;;;;;5142201;27;20234;-80
2022/04/01 11:02:15;;;;;;;11.67;11.27;;;3.20;99.90;;;;;;5141706;27;20240;-81
2022/04/01 11:04:45;;;;;;;11.70;11.30;;;3.10;99.90;;;;;;5141566;27;20328;-80
2022/04/01 11:07:33;;;;;;;11.97;11.57;;;3.00;99.90;;;;;;5141338;27;20236;-80
2022/04/01 11:10:04;;;;;;;11.87;11.47;;;2.90;99.90;;;;;;5141314;27;20305;-80
2022/04/01 11:12:38;;;;;;;12.00;11.60;;;3.00;99.90;;;;;;5141139;27;20232;-81
2022/04/01 11:15:22;;;;;;;11.80;11.40;;;3.00;99.90;;;;;;5141531;27;20235;-81
2022/04/01 11:18:09;;;;;;;11.77;11.37;;;3.00;99.90;;;;;;5141402;27;20326;-81
2022/04/01 11:20:40;;;;;;;12.03;11.63;;;2.90;99.90;;;;;;5142132;27;20235;-80
2022/04/01 11:23:14;;;;;;;11.87;11.47;;;2.90;99.90;;;;;;5141679;27;20293;-80
2022/04/01 11:26:02;;;;;;;11.47;11.07;;;2.90;99.90;;;;;;5142094;27;20231;-81
2022/04/01 11:28:39;;;;;;;11.53;11.13;;;2.80;99.90;;;;;;5141498;27;20379;-80
2022/04/01 11:31:18;;;;;;;11.70;11.30;;;2.80;99.90;;;;;;5141531;27;20259;-81
2022/04/01 11:34:02;;;;;;;11.70;11.30;;;2.70;99.90;;;;;;5141554;27;20295;-81
2022/04/01 11:36:31;;;;;;;11.30;10.90;;;2.70;99.90;;;;;;5141088;27;20287;-81
2022/04/01 11:38:59;;;;;;;11.50;11.10;;;2.70;99.90;;;;;;5141769;27;20228;-80
2022/04/01 11:41:27;;;;;;;11.50;11.10;;;2.70;99.90;;;;;;5141226;27;20220;-80
2022/04/01 11:43:55;;;;;;;11.30;10.90;;;2.70;99.90;;;;;;5139828;27;20997;-80
2022/04/01 11:46:23;;;;;;;11.50;11.10;;;2.70;99.90;;;;;;5139922;27;20293;-80
2022/04/01 11:48:50;;;;;;;11.37;10.97;;;2.80;99.90;;;;;;5140907;27;20242;-80
2022/04/01 11:51:23;;;;;;;11.80;11.40;;;2.80;99.90;;;;;;5143055;27;20278;-81
2022/04/01 11:53:53;;;;;;;11.70;11.30;;;2.70;99.90;;;;;;5141819;27;20227;-81
2022/04/01 11:56:24;;;;;;;11.37;10.97;;;2.70;99.90;;;;;;5141824;27;20240;-81
2022/04/01 11:58:57;;;;;;;11.60;11.20;;;2.60;99.90;;;;;;5140409;27;20243;-81
2022/04/01 12:01:27;;;;;;;11.43;11.03;;;2.60;99.90;;;;;;5141174;27;20220;-81
2022/04/01 12:04:11;;;;;;;11.60;11.20;;;2.50;99.90;;;;;;5140319;27;20232;-81
2022/04/01 12:09:32;;;;;;;11.70;11.30;;;2.50;99.90;;;;;;5140812;27;20220;-81
2022/04/01 12:12:01;;;;;;;11.60;11.20;;;2.60;99.90;;;;;;5141404;27;20323;-82
2022/04/01 12:14:30;;;;;;;11.00;10.60;;;2.60;99.90;;;;;;5141488;27;20288;-81
2022/04/01 12:16:58;;;;;;;11.17;10.77;;;2.60;99.90;;;;;;5140838;27;20243;-81
2022/04/01 12:19:26;;;;;;;11.00;10.67;;;2.60;99.90;;;;;;5145043;27;20250;-81
2022/04/01 12:21:59;;;;;;;11.20;10.80;;;2.50;99.90;;;;;;5141136;27;20212;-81
2022/04/01 12:24:30;;;;;;;11.70;11.30;;;2.50;99.90;;;;;;5138668;27;20231;-81
2022/04/01 12:26:59;;;;;;;11.27;10.87;;;2.60;99.90;;;;;;5133342;27;20243;-84
2022/04/01 12:29:28;;;;;;;11.53;11.13;;;2.70;99.90;;;;;;5122785;27;20237;-83
2022/04/01 12:31:58;;;;;;;11.40;11.00;;;3.00;99.90;;;;;;5141953;27;20313;-81
2022/04/01 12:34:27;;;;;;;11.40;11.00;;;3.10;99.90;;;;;;5142173;27;20282;-80
2022/04/01 12:37:00;;;;;;;11.63;11.23;;;3.30;99.90;;;;;;5125066;27;20252;-79
2022/04/01 12:39:29;;;;;;;11.20;10.80;;;3.20;99.90;;;;;;5116157;28;20228;-78
2022/04/01 12:41:59;;;;;;;11.00;10.60;;;3.10;99.90;;;;;;5127779;28;20257;-79
2022/04/01 12:44:29;;;;;;;10.73;10.43;;;3.00;99.90;;;;;;5138330;28;20223;-79
2022/04/01 12:46:59;;;;;;;10.90;10.60;;;2.90;99.90;;;;;;5123851;28;20260;-79
2022/04/01 12:49:30;;;;;;;11.27;10.87;;;2.70;99.90;;;;;;5121574;28;20243;-77
2022/04/01 12:52:03;;;;;;;11.30;10.90;;;2.60;99.90;;;;;;5133315;27;20224;-80
2022/04/01 12:54:34;;;;;;;10.80;10.50;;;2.50;99.90;;;;;;5140704;27;20312;-78
2022/04/01 12:57:06;;;;;;;11.20;10.80;;;2.50;99.90;;;;;;5139329;27;20794;-78
2022/04/01 12:59:37;;;;;;;11.20;10.80;;;2.50;99.90;;;;;;5142150;27;20301;-80
2022/04/01 13:02:09;;;;;;;11.27;10.87;;;2.50;99.90;;;;;;5143726;27;20266;-80
2022/04/01 13:04:42;;;;;;;11.30;10.90;;;2.60;99.90;;;;;;5140347;27;21137;-78
2022/04/01 13:07:14;;;;;;;11.50;11.10;;;2.60;99.90;;;;;;5131550;28;20271;-78
2022/04/01 13:09:53;;;;;;;11.10;10.70;;;2.70;99.90;;;;;;5124546;28;20235;-79